RKTU/CHN METAR and TAF weather

Enter ICAO airport designator
Station Type Date Time Source
RKTU METAR 2021/03/07 08:00 UTC NOAA

RKTU 070800Z 15001KT 9999 FEW040 BKN180 10/01 Q1026


Station Type Date Time Source
RKTU Decoded METAR 2021/03/07 08:00 UTC NOAA

Chongju Ab, Korea, South (RKTU) 36-42N 127-30E 66M
Mar 07, 2021 - 03:00 AM EST / 2021.03.07 0800 UTC
Wind: from the SSE (150 degrees) at 1 MPH (1 KT):0
Visibility: greater than 7 mile(s):0
Sky conditions: mostly cloudy
Temperature: 50 F (10 C)
Dew Point: 33 F (1 C)
Relative Humidity: 53%
Pressure (altimeter): 30.30 in. Hg (1026 hPa)
ob: RKTU 070800Z 15001KT 9999 FEW040 BKN180 10/01 Q1026
cycle: 8

Station Type Date Time Source
RKTU TAF 2021/03/07 06:27 UTC NOAA

TAF TAF RKTU 070500Z 0706/0812 09006KT 9999 BKN030 BKN200 TNM03/0722Z TX14/0806Z
BECMG 0718/0719 06006KT 4800 BR SCT030 BKN200
BECMG 0721/0722 1600
BECMG 0801/0802 4800
BECMG 0802/0803 9999 NSW

Example: see airport list